sensor_id;sensor_type;location;lat;lon;timestamp;pressure;altitude;pressure_sealevel;temperature;humidity
41513;BME280;27244;59.940;30.280;2022-11-20T00:02:21;101954.47;;;22.38;26.65
41513;BME280;27244;59.940;30.280;2022-11-20T00:04:48;101952.06;;;22.37;26.29
41513;BME280;27244;59.940;30.280;2022-11-20T00:07:17;101955.28;;;22.39;26.34
41513;BME280;27244;59.940;30.280;2022-11-20T00:09:44;101950.88;;;22.38;25.81
41513;BME280;27244;59.940;30.280;2022-11-20T00:12:11;101948.88;;;22.35;26.01
41513;BME280;27244;59.940;30.280;2022-11-20T00:14:38;101950.06;;;22.37;25.81
41513;BME280;27244;59.940;30.280;2022-11-20T00:17:06;101955.69;;;22.34;25.84
41513;BME280;27244;59.940;30.280;2022-11-20T00:19:33;101956.88;;;22.36;25.82
41513;BME280;27244;59.940;30.280;2022-11-20T00:22:00;101943.25;;;22.35;26.00
41513;BME280;27244;59.940;30.280;2022-11-20T00:24:29;101951.69;;;22.35;25.96
41513;BME280;27244;59.940;30.280;2022-11-20T00:26:56;101938.81;;;22.34;25.69
41513;BME280;27244;59.940;30.280;2022-11-20T00:29:22;101938.81;;;22.34;25.65
41513;BME280;27244;59.940;30.280;2022-11-20T00:31:49;101932.81;;;22.32;26.07
41513;BME280;27244;59.940;30.280;2022-11-20T00:34:16;101925.97;;;22.29;25.62
41513;BME280;27244;59.940;30.280;2022-11-20T00:36:43;101933.19;;;22.34;25.11
41513;BME280;27244;59.940;30.280;2022-11-20T00:39:10;101924.78;;;22.30;25.36
41513;BME280;27244;59.940;30.280;2022-11-20T00:41:38;101922.38;;;22.29;25.25
41513;BME280;27244;59.940;30.280;2022-11-20T00:44:05;101924.78;;;22.30;24.88
41513;BME280;27244;59.940;30.280;2022-11-20T00:46:32;101932.03;;;22.28;25.37
41513;BME280;27244;59.940;30.280;2022-11-20T00:48:59;101914.75;;;22.22;25.16
41513;BME280;27244;59.940;30.280;2022-11-20T00:51:27;101925.19;;;22.29;25.27
41513;BME280;27244;59.940;30.280;2022-11-20T00:53:55;101913.56;;;22.27;25.06
41513;BME280;27244;59.940;30.280;2022-11-20T00:56:22;101917.97;;;22.28;25.17
41513;BME280;27244;59.940;30.280;2022-11-20T00:58:51;101919.56;;;22.29;24.89
41513;BME280;27244;59.940;30.280;2022-11-20T01:01:19;101890.69;;;22.11;24.86
41513;BME280;27244;59.940;30.280;2022-11-20T01:03:47;101917.97;;;22.28;25.08
41513;BME280;27244;59.940;30.280;2022-11-20T01:06:17;101896.72;;;22.20;24.66
41513;BME280;27244;59.940;30.280;2022-11-20T01:08:44;101905.13;;;22.27;24.88
41513;BME280;27244;59.940;30.280;2022-11-20T01:11:14;101901.91;;;22.28;24.93
41513;BME280;27244;59.940;30.280;2022-11-20T01:13:41;101897.88;;;22.26;24.58
41513;BME280;27244;59.940;30.280;2022-11-20T01:16:13;101897.06;;;22.29;24.46
41513;BME280;27244;59.940;30.280;2022-11-20T01:18:41;101901.84;;;22.42;25.56
41513;BME280;27244;59.940;30.280;2022-11-20T01:21:10;101895.06;;;22.26;24.38
41513;BME280;27244;59.940;30.280;2022-11-20T01:23:39;101903.50;;;22.26;24.62
41513;BME280;27244;59.940;30.280;2022-11-20T01:26:09;101892.69;;;22.24;24.35
41513;BME280;27244;59.940;30.280;2022-11-20T01:28:36;101887.47;;;22.23;24.41
41513;BME280;27244;59.940;30.280;2022-11-20T01:31:12;101884.63;;;22.26;24.92
41513;BME280;27244;59.940;30.280;2022-11-20T01:33:40;101878.25;;;22.19;24.62
41513;BME280;27244;59.940;30.280;2022-11-20T01:36:08;101877.03;;;22.20;24.45
41513;BME280;27244;59.940;30.280;2022-11-20T01:38:36;101883.47;;;22.20;24.58
41513;BME280;27244;59.940;30.280;2022-11-20T01:41:04;101879.41;;;22.21;24.51
41513;BME280;27244;59.940;30.280;2022-11-20T01:43:31;101887.06;;;22.21;24.17
41513;BME280;27244;59.940;30.280;2022-11-20T01:46:14;101878.19;;;22.29;24.63
41513;BME280;27244;59.940;30.280;2022-11-20T01:48:46;101880.22;;;22.22;24.37
41513;BME280;27244;59.940;30.280;2022-11-20T01:51:23;101879.03;;;22.23;23.93
41513;BME280;27244;59.940;30.280;2022-11-20T01:53:54;101867.41;;;22.21;24.20
41513;BME280;27244;59.940;30.280;2022-11-20T01:56:22;101875.44;;;22.19;23.73
41513;BME280;27244;59.940;30.280;2022-11-20T01:58:53;101869.41;;;22.20;23.94
41513;BME280;27244;59.940;30.280;2022-11-20T02:01:23;101881.03;;;22.19;24.11
41513;BME280;27244;59.940;30.280;2022-11-20T02:03:50;101873.81;;;22.18;24.00
41513;BME280;27244;59.940;30.280;2022-11-20T02:06:22;101871.41;;;22.20;24.03
41513;BME280;27244;59.940;30.280;2022-11-20T02:08:51;101873.06;;;22.14;23.88
41513;BME280;27244;59.940;30.280;2022-11-20T02:11:18;101871.44;;;22.16;23.75
41513;BME280;27244;59.940;30.280;2022-11-20T02:13:45;101869.00;;;22.15;23.73
41513;BME280;27244;59.940;30.280;2022-11-20T02:16:15;101870.63;;;22.16;23.89
41513;BME280;27244;59.940;30.280;2022-11-20T02:18:44;101865.00;;;22.16;24.14
41513;BME280;27244;59.940;30.280;2022-11-20T02:21:21;101871.81;;;22.18;23.89
41513;BME280;27244;59.940;30.280;2022-11-20T02:23:59;101875.41;;;22.22;23.97
41513;BME280;27244;59.940;30.280;2022-11-20T02:26:28;101861.38;;;22.15;23.73
41513;BME280;27244;59.940;30.280;2022-11-20T02:28:56;101864.19;;;22.15;23.79
41513;BME280;27244;59.940;30.280;2022-11-20T02:31:25;101867.81;;;22.16;23.63
41513;BME280;27244;59.940;30.280;2022-11-20T02:33:55;101855.75;;;22.15;23.42
41513;BME280;27244;59.940;30.280;2022-11-20T02:36:23;101858.19;;;22.13;23.51
41513;BME280;27244;59.940;30.280;2022-11-20T02:38:52;101856.59;;;22.12;23.56
41513;BME280;27244;59.940;30.280;2022-11-20T02:41:20;101860.19;;;22.13;23.86
41513;BME280;27244;59.940;30.280;2022-11-20T02:43:47;101858.59;;;22.12;23.49
41513;BME280;27244;59.940;30.280;2022-11-20T02:46:14;101850.16;;;22.12;23.16
41513;BME280;27244;59.940;30.280;2022-11-20T02:48:41;101848.16;;;22.08;23.70
41513;BME280;27244;59.940;30.280;2022-11-20T02:51:08;101840.94;;;22.07;23.56
41513;BME280;27244;59.940;30.280;2022-11-20T02:53:35;101846.16;;;22.09;23.43
41513;BME280;27244;59.940;30.280;2022-11-20T02:56:02;101842.16;;;22.10;23.72
41513;BME280;27244;59.940;30.280;2022-11-20T02:58:30;101854.16;;;22.11;23.49
41513;BME280;27244;59.940;30.280;2022-11-20T03:00:57;101850.59;;;22.10;23.36
41513;BME280;27244;59.940;30.280;2022-11-20T03:03:24;101843.34;;;22.09;23.46
41513;BME280;27244;59.940;30.280;2022-11-20T03:05:51;101844.16;;;22.06;23.51
41513;BME280;27244;59.940;30.280;2022-11-20T03:08:18;101850.16;;;22.08;23.31
41513;BME280;27244;59.940;30.280;2022-11-20T03:10:45;101846.56;;;22.07;23.10
41513;BME280;27244;59.940;30.280;2022-11-20T03:13:12;101846.56;;;22.07;23.44
41513;BME280;27244;59.940;30.280;2022-11-20T03:15:40;101834.94;;;22.05;23.56
41513;BME280;27244;59.940;30.280;2022-11-20T03:18:07;101835.31;;;22.07;23.32
41513;BME280;27244;59.940;30.280;2022-11-20T03:20:34;101846.19;;;22.05;23.13
41513;BME280;27244;59.940;30.280;2022-11-20T03:23:01;101842.16;;;22.06;23.04
41513;BME280;27244;59.940;30.280;2022-11-20T03:25:29;101848.97;;;22.05;23.30
41513;BME280;27244;59.940;30.280;2022-11-20T03:27:56;101841.38;;;22.06;23.24
41513;BME280;27244;59.940;30.280;2022-11-20T03:30:23;101843.38;;;22.05;23.65
41513;BME280;27244;59.940;30.280;2022-11-20T03:32:54;101841.75;;;22.08;23.12
41513;BME280;27244;59.940;30.280;2022-11-20T03:35:21;101838.56;;;22.06;22.99
41513;BME280;27244;59.940;30.280;2022-11-20T03:37:47;101841.75;;;22.04;23.40
41513;BME280;27244;59.940;30.280;2022-11-20T03:40:15;101843.38;;;22.05;23.04
41513;BME280;27244;59.940;30.280;2022-11-20T03:42:41;101839.75;;;22.05;23.10
41513;BME280;27244;59.940;30.280;2022-11-20T03:45:11;101840.94;;;22.04;23.02
41513;BME280;27244;59.940;30.280;2022-11-20T03:47:39;101838.94;;;22.04;23.24
41513;BME280;27244;59.940;30.280;2022-11-20T03:50:08;101838.94;;;22.04;23.05
41513;BME280;27244;59.940;30.280;2022-11-20T03:52:35;101839.34;;;22.03;23.08
41513;BME280;27244;59.940;30.280;2022-11-20T03:55:02;101835.75;;;21.99;23.39
41513;BME280;27244;59.940;30.280;2022-11-20T03:57:29;101840.16;;;22.03;23.09
41513;BME280;27244;59.940;30.280;2022-11-20T03:59:56;101836.53;;;21.99;23.29
41513;BME280;27244;59.940;30.280;2022-11-20T04:02:23;101836.97;;;22.01;22.89
41513;BME280;27244;59.940;30.280;2022-11-20T04:04:50;101833.72;;;21.99;22.82
41513;BME280;27244;59.940;30.280;2022-11-20T04:07:19;101834.56;;;21.96;23.01
41513;BME280;27244;59.940;30.280;2022-11-20T04:09:45;101832.16;;;21.98;22.84
41513;BME280;27244;59.940;30.280;2022-11-20T04:12:12;101823.31;;;21.96;22.89
41513;BME280;27244;59.940;30.280;2022-11-20T04:14:39;101828.94;;;21.96;23.03
41513;BME280;27244;59.940;30.280;2022-11-20T04:17:06;101822.13;;;21.97;22.93
41513;BME280;27244;59.940;30.280;2022-11-20T04:19:33;101819.69;;;21.96;23.00
41513;BME280;27244;59.940;30.280;2022-11-20T04:22:00;101825.75;;;21.94;23.26
41513;BME280;27244;59.940;30.280;2022-11-20T04:24:28;101825.31;;;21.96;23.14
41513;BME280;27244;59.940;30.280;2022-11-20T04:26:55;101822.50;;;21.96;22.85
41513;BME280;27244;59.940;30.280;2022-11-20T04:29:22;101809.69;;;21.91;22.90
41513;BME280;27244;59.940;30.280;2022-11-20T04:31:49;101814.09;;;21.96;22.98
41513;BME280;27244;59.940;30.280;2022-11-20T04:34:16;101814.09;;;21.96;22.84
41513;BME280;27244;59.940;30.280;2022-11-20T04:36:43;101815.31;;;21.95;22.87
41513;BME280;27244;59.940;30.280;2022-11-20T04:39:14;101808.88;;;21.98;23.03
41513;BME280;27244;59.940;30.280;2022-11-20T04:41:43;101816.13;;;21.95;22.74
41513;BME280;27244;59.940;30.280;2022-11-20T04:44:11;101812.91;;;21.93;22.66
41513;BME280;27244;59.940;30.280;2022-11-20T04:46:40;101807.28;;;21.93;22.69
41513;BME280;27244;59.940;30.280;2022-11-20T04:49:07;101800.84;;;21.89;22.82
41513;BME280;27244;59.940;30.280;2022-11-20T04:51:34;101804.88;;;21.92;22.99
41513;BME280;27244;59.940;30.280;2022-11-20T04:54:02;101810.09;;;21.93;22.86
41513;BME280;27244;59.940;30.280;2022-11-20T04:56:29;101819.72;;;21.92;23.07
41513;BME280;27244;59.940;30.280;2022-11-20T04:59:00;101818.50;;;21.93;22.89
41513;BME280;27244;59.940;30.280;2022-11-20T05:01:27;101824.94;;;21.94;23.07
41513;BME280;27244;59.940;30.280;2022-11-20T05:03:54;101822.53;;;21.92;23.11
41513;BME280;27244;59.940;30.280;2022-11-20T05:06:21;101820.13;;;21.91;23.11
41513;BME280;27244;59.940;30.280;2022-11-20T05:08:48;101819.72;;;21.92;23.05
41513;BME280;27244;59.940;30.280;2022-11-20T05:11:17;101819.31;;;21.90;22.73
41513;BME280;27244;59.940;30.280;2022-11-20T05:13:45;101815.31;;;21.88;22.88
41513;BME280;27244;59.940;30.280;2022-11-20T05:16:15;101828.94;;;21.93;22.79
41513;BME280;27244;59.940;30.280;2022-11-20T05:18:42;101821.31;;;21.90;22.91
41513;BME280;27244;59.940;30.280;2022-11-20T05:21:10;101820.91;;;21.88;22.79
41513;BME280;27244;59.940;30.280;2022-11-20T05:23:38;101821.72;;;21.88;22.72
41513;BME280;27244;59.940;30.280;2022-11-20T05:26:06;101828.53;;;21.87;23.10
41513;BME280;27244;59.940;30.280;2022-11-20T05:28:33;101825.72;;;21.87;22.92
41513;BME280;27244;59.940;30.280;2022-11-20T05:31:06;101830.94;;;21.89;23.15
41513;BME280;27244;59.940;30.280;2022-11-20T05:33:35;101825.72;;;21.87;22.96
41513;BME280;27244;59.940;30.280;2022-11-20T05:36:03;101836.97;;;21.87;22.90
41513;BME280;27244;59.940;30.280;2022-11-20T05:38:30;101828.94;;;21.86;23.07
41513;BME280;27244;59.940;30.280;2022-11-20T05:41:03;101826.91;;;21.90;23.02
41513;BME280;27244;59.940;30.280;2022-11-20T05:43:32;101828.94;;;21.86;23.10
41513;BME280;27244;59.940;30.280;2022-11-20T05:45:59;101830.16;;;21.85;22.90
41513;BME280;27244;59.940;30.280;2022-11-20T05:48:29;101822.53;;;21.82;22.85
41513;BME280;27244;59.940;30.280;2022-11-20T05:50:59;101822.53;;;21.82;23.11
41513;BME280;27244;59.940;30.280;2022-11-20T05:53:26;101822.53;;;21.82;22.91
41513;BME280;27244;59.940;30.280;2022-11-20T05:55:57;101832.97;;;21.88;23.00
41513;BME280;27244;59.940;30.280;2022-11-20T05:58:24;101829.75;;;21.86;22.81
41513;BME280;27244;59.940;30.280;2022-11-20T06:00:51;101832.16;;;21.84;22.68
41513;BME280;27244;59.940;30.280;2022-11-20T06:03:18;101828.16;;;21.78;22.83
41513;BME280;27244;59.940;30.280;2022-11-20T06:05:45;101820.94;;;21.81;22.75
41513;BME280;27244;59.940;30.280;2022-11-20T06:08:14;101841.78;;;21.83;22.68
41513;BME280;27244;59.940;30.280;2022-11-20T06:10:40;101831.75;;;21.79;22.80
41513;BME280;27244;59.940;30.280;2022-11-20T06:13:07;101829.75;;;21.79;22.99
41513;BME280;27244;59.940;30.280;2022-11-20T06:15:34;101838.19;;;21.83;22.93
41513;BME280;27244;59.940;30.280;2022-11-20T06:18:01;101821.72;;;21.78;22.94
41513;BME280;27244;59.940;30.280;2022-11-20T06:20:28;101830.13;;;21.81;23.08
41513;BME280;27244;59.940;30.280;2022-11-20T06:22:55;101841.38;;;21.81;23.07
41513;BME280;27244;59.940;30.280;2022-11-20T06:25:23;101832.94;;;21.81;22.76
41513;BME280;27244;59.940;30.280;2022-11-20T06:27:50;101842.59;;;21.80;22.73
41513;BME280;27244;59.940;30.280;2022-11-20T06:30:18;101841.38;;;21.81;22.72
41513;BME280;27244;59.940;30.280;2022-11-20T06:32:45;101838.56;;;21.78;22.77
41513;BME280;27244;59.940;30.280;2022-11-20T06:35:12;101834.19;;;21.80;22.67
41513;BME280;27244;59.940;30.280;2022-11-20T06:37:42;101836.16;;;21.83;22.55
41513;BME280;27244;59.940;30.280;2022-11-20T06:40:10;101835.38;;;21.79;22.60
41513;BME280;27244;59.940;30.280;2022-11-20T06:42:40;101840.19;;;21.82;22.78
41513;BME280;27244;59.940;30.280;2022-11-20T06:45:10;101836.19;;;21.80;22.61
41513;BME280;27244;59.940;30.280;2022-11-20T06:47:45;101841.00;;;21.83;22.81
41513;BME280;27244;59.940;30.280;2022-11-20T06:50:12;101843.00;;;21.79;22.64
41513;BME280;27244;59.940;30.280;2022-11-20T06:52:48;101840.16;;;21.86;22.48
41513;BME280;27244;59.940;30.280;2022-11-20T06:55:15;101838.19;;;21.76;22.88
41513;BME280;27244;59.940;30.280;2022-11-20T07:32:28;101851.44;;;21.75;22.38
41513;BME280;27244;59.940;30.280;2022-11-20T07:34:55;101854.66;;;21.74;22.48
41513;BME280;27244;59.940;30.280;2022-11-20T07:37:22;101865.91;;;21.74;22.33
41513;BME280;27244;59.940;30.280;2022-11-20T07:39:49;101866.66;;;21.74;22.25
41513;BME280;27244;59.940;30.280;2022-11-20T07:42:15;101865.47;;;21.75;22.48
41513;BME280;27244;59.940;30.280;2022-11-20T07:44:43;101864.66;;;21.75;22.29
41513;BME280;27244;59.940;30.280;2022-11-20T07:47:09;101873.91;;;21.75;22.39
41513;BME280;27244;59.940;30.280;2022-11-20T07:49:38;101864.28;;;21.73;22.46
41513;BME280;27244;59.940;30.280;2022-11-20T07:52:05;101853.84;;;21.73;22.39
41513;BME280;27244;59.940;30.280;2022-11-20T07:54:32;101863.88;;;21.74;22.25
41513;BME280;27244;59.940;30.280;2022-11-20T07:56:59;101875.09;;;21.74;22.35
41513;BME280;27244;59.940;30.280;2022-11-20T07:59:25;101860.28;;;21.74;22.37
41513;BME280;27244;59.940;30.280;2022-11-20T08:01:52;101867.47;;;21.75;22.29
41513;BME280;27244;59.940;30.280;2022-11-20T08:04:19;101853.06;;;21.73;22.59
41513;BME280;27244;59.940;30.280;2022-11-20T08:06:48;101849.03;;;21.74;23.32
41513;BME280;27244;59.940;30.280;2022-11-20T08:09:15;101849.81;;;21.71;23.62
41513;BME280;27244;59.940;30.280;2022-11-20T08:11:42;101851.06;;;21.73;23.62
41513;BME280;27244;59.940;30.280;2022-11-20T08:14:26;101844.63;;;21.73;24.01
41513;BME280;27244;59.940;30.280;2022-11-20T08:16:53;101854.66;;;21.74;24.19
41513;BME280;27244;59.940;30.280;2022-11-20T08:19:20;101856.25;;;21.78;24.31
41513;BME280;27244;59.940;30.280;2022-11-20T08:21:48;101862.28;;;21.80;24.50
41513;BME280;27244;59.940;30.280;2022-11-20T08:24:15;101859.03;;;21.78;24.79
41513;BME280;27244;59.940;30.280;2022-11-20T08:26:42;101859.84;;;21.79;25.19
41513;BME280;27244;59.940;30.280;2022-11-20T08:29:09;101852.63;;;21.78;25.35
41513;BME280;27244;59.940;30.280;2022-11-20T08:31:36;101844.63;;;21.76;25.56
41513;BME280;27244;59.940;30.280;2022-11-20T08:34:03;101854.66;;;21.81;25.79
41513;BME280;27244;59.940;30.280;2022-11-20T08:36:33;101858.66;;;21.80;25.73
41513;BME280;27244;59.940;30.280;2022-11-20T08:39:02;101865.47;;;21.82;25.94
41513;BME280;27244;59.940;30.280;2022-11-20T08:41:29;101864.28;;;21.80;26.23
41513;BME280;27244;59.940;30.280;2022-11-20T08:43:59;101866.25;;;21.83;26.35
41513;BME280;27244;59.940;30.280;2022-11-20T08:46:31;101871.06;;;21.86;26.44
41513;BME280;27244;59.940;30.280;2022-11-20T08:49:02;101867.47;;;21.82;26.83
41513;BME280;27244;59.940;30.280;2022-11-20T08:51:29;101865.47;;;21.82;27.14
41513;BME280;27244;59.940;30.280;2022-11-20T08:53:57;101866.25;;;21.83;27.29
41513;BME280;27244;59.940;30.280;2022-11-20T08:56:25;101877.50;;;21.86;27.32
41513;BME280;27244;59.940;30.280;2022-11-20T08:58:52;101880.69;;;21.81;27.90
41513;BME280;27244;59.940;30.280;2022-11-20T09:01:20;101873.50;;;21.84;28.01
41513;BME280;27244;59.940;30.280;2022-11-20T09:03:48;101878.69;;;21.85;28.02
41513;BME280;27244;59.940;30.280;2022-11-20T09:06:15;101867.06;;;21.87;28.06
41513;BME280;27244;59.940;30.280;2022-11-20T09:08:43;101869.06;;;21.86;28.15
41513;BME280;27244;59.940;30.280;2022-11-20T09:11:10;101869.06;;;21.86;28.76
41513;BME280;27244;59.940;30.280;2022-11-20T09:13:41;101873.06;;;21.89;29.21
41513;BME280;27244;59.940;30.280;2022-11-20T09:16:08;101869.06;;;21.86;28.92
41513;BME280;27244;59.940;30.280;2022-11-20T09:18:37;101870.69;;;21.87;29.56
41513;BME280;27244;59.940;30.280;2022-11-20T09:21:06;101869.47;;;21.88;29.31
41513;BME280;27244;59.940;30.280;2022-11-20T09:23:35;101859.44;;;21.84;29.98
41513;BME280;27244;59.940;30.280;2022-11-20T09:26:03;101859.44;;;21.87;29.67
41513;BME280;27244;59.940;30.280;2022-11-20T09:28:30;101853.81;;;21.87;29.23
41513;BME280;27244;59.940;30.280;2022-11-20T09:30:58;101853.41;;;21.89;29.36
41513;BME280;27244;59.940;30.280;2022-11-20T09:33:28;101853.41;;;21.92;29.30
41513;BME280;27244;59.940;30.280;2022-11-20T09:35:55;101857.03;;;21.86;29.30
41513;BME280;27244;59.940;30.280;2022-11-20T09:38:22;101858.25;;;21.88;29.38
41513;BME280;27244;59.940;30.280;2022-11-20T09:40:55;101861.84;;;21.92;29.20
41513;BME280;27244;59.940;30.280;2022-11-20T09:43:32;101854.63;;;21.95;29.20
41513;BME280;27244;59.940;30.280;2022-11-20T09:46:09;101853.41;;;21.92;29.36
41513;BME280;27244;59.940;30.280;2022-11-20T09:49:07;101850.59;;;21.99;29.14
41513;BME280;27244;59.940;30.280;2022-11-20T09:51:50;101848.22;;;21.94;29.14
41513;BME280;27244;59.940;30.280;2022-11-20T09:54:22;101845.78;;;21.89;29.50
41513;BME280;27244;59.940;30.280;2022-11-20T09:56:54;101850.22;;;21.94;29.46
41513;BME280;27244;59.940;30.280;2022-11-20T09:59:31;101844.59;;;21.97;29.41
41513;BME280;27244;59.940;30.280;2022-11-20T10:02:06;101850.22;;;21.94;29.53
41513;BME280;27244;59.940;30.280;2022-11-20T10:04:39;101850.22;;;21.94;29.46
41513;BME280;27244;59.940;30.280;2022-11-20T10:07:15;101848.22;;;21.94;29.66
41513;BME280;27244;59.940;30.280;2022-11-20T10:09:50;101846.59;;;21.93;29.99
41513;BME280;27244;59.940;30.280;2022-11-20T10:12:24;101845.81;;;21.93;29.63
41513;BME280;27244;59.940;30.280;2022-11-20T10:15:06;101851.00;;;21.98;29.84
41513;BME280;27244;59.940;30.280;2022-11-20T10:17:55;101850.59;;;21.99;29.93
41513;BME280;27244;59.940;30.280;2022-11-20T10:20:29;101849.81;;;21.95;30.29
41513;BME280;27244;59.940;30.280;2022-11-20T10:23:15;101856.22;;;21.99;29.97
41513;BME280;27244;59.940;30.280;2022-11-20T10:25:51;101849.81;;;21.95;30.29
41513;BME280;27244;59.940;30.280;2022-11-20T10:28:34;101849.81;;;21.95;30.44
41513;BME280;27244;59.940;30.280;2022-11-20T10:31:10;101847.78;;;21.96;30.36
41513;BME280;27244;59.940;30.280;2022-11-20T10:33:42;101853.84;;;21.94;30.58
41513;BME280;27244;59.940;30.280;2022-11-20T10:36:15;101844.97;;;21.96;30.36
41513;BME280;27244;59.940;30.280;2022-11-20T10:38:48;101851.03;;;21.94;30.71
41513;BME280;27244;59.940;30.280;2022-11-20T10:41:23;101855.44;;;21.95;30.36
41513;BME280;27244;59.940;30.280;2022-11-20T10:43:56;101859.47;;;21.91;30.48
41513;BME280;27244;59.940;30.280;2022-11-20T10:46:33;101856.22;;;21.92;31.32
41513;BME280;27244;59.940;30.280;2022-11-20T10:49:12;101851.84;;;21.91;31.14
41513;BME280;27244;59.940;30.280;2022-11-20T10:51:45;101855.47;;;21.92;31.04
41513;BME280;27244;59.940;30.280;2022-11-20T10:54:22;101844.59;;;21.90;32.02
41513;BME280;27244;59.940;30.280;2022-11-20T10:56:53;101840.59;;;21.84;32.51
41513;BME280;27244;59.940;30.280;2022-11-20T10:59:41;101853.81;;;21.98;31.90
41513;BME280;27244;59.940;30.280;2022-11-20T11:02:16;101853.84;;;21.91;32.49
41513;BME280;27244;59.940;30.280;2022-11-20T11:04:46;101848.22;;;21.87;32.52
41513;BME280;27244;59.940;30.280;2022-11-20T11:07:16;101849.00;;;21.88;32.86
41513;BME280;27244;59.940;30.280;2022-11-20T11:09:48;101845.78;;;21.86;32.78
41513;BME280;27244;59.940;30.280;2022-11-20T11:12:15;101842.97;;;21.86;32.68
41513;BME280;27244;59.940;30.280;2022-11-20T11:14:48;101836.56;;;21.85;32.57
41513;BME280;27244;59.940;30.280;2022-11-20T11:17:25;101847.41;;;21.94;31.97
41513;BME280;27244;59.940;30.280;2022-11-20T11:20:00;101855.44;;;21.95;31.92
41513;BME280;27244;59.940;30.280;2022-11-20T11:22:28;101856.66;;;21.91;31.98
41513;BME280;27244;59.940;30.280;2022-11-20T11:24:56;101854.66;;;21.91;32.10
41513;BME280;27244;59.940;30.280;2022-11-20T11:27:22;101862.28;;;21.91;32.36
41513;BME280;27244;59.940;30.280;2022-11-20T11:29:50;101853.84;;;21.91;32.25
41513;BME280;27244;59.940;30.280;2022-11-20T11:32:27;101857.47;;;21.91;33.16
41513;BME280;27244;59.940;30.280;2022-11-20T11:35:03;101849.03;;;21.95;32.75
41513;BME280;27244;59.940;30.280;2022-11-20T11:37:34;101852.19;;;21.90;33.03
41513;BME280;27244;59.940;30.280;2022-11-20T11:40:02;101852.19;;;21.90;32.48
41513;BME280;27244;59.940;30.280;2022-11-20T11:42:30;101847.41;;;21.90;32.98
41513;BME280;27244;59.940;30.280;2022-11-20T11:44:59;101839.78;;;21.87;33.06
41513;BME280;27244;59.940;30.280;2022-11-20T11:47:37;101853.41;;;21.92;32.89
41513;BME280;27244;59.940;30.280;2022-11-20T11:50:16;101848.22;;;21.94;32.15
41513;BME280;27244;59.940;30.280;2022-11-20T11:52:47;101847.03;;;21.92;32.87
41513;BME280;27244;59.940;30.280;2022-11-20T11:55:21;101846.59;;;21.93;32.51
41513;BME280;27244;59.940;30.280;2022-11-20T11:57:55;101841.78;;;21.94;32.11
41513;BME280;27244;59.940;30.280;2022-11-20T12:00:26;101846.22;;;21.91;33.09
41513;BME280;27244;59.940;30.280;2022-11-20T12:02:59;101851.03;;;21.94;33.33
41513;BME280;27244;59.940;30.280;2022-11-20T12:05:32;101855.03;;;21.93;33.49
41513;BME280;27244;59.940;30.280;2022-11-20T12:08:05;101852.22;;;21.93;33.68
41513;BME280;27244;59.940;30.280;2022-11-20T12:10:41;101845.41;;;21.91;33.49
41513;BME280;27244;59.940;30.280;2022-11-20T12:13:30;101861.06;;;21.95;33.62
41513;BME280;27244;59.940;30.280;2022-11-20T12:16:02;101852.19;;;21.90;33.88
41513;BME280;27244;59.940;30.280;2022-11-20T12:18:30;101852.22;;;21.86;33.65
41513;BME280;27244;59.940;30.280;2022-11-20T12:21:11;101856.22;;;21.96;33.65
41513;BME280;27244;59.940;30.280;2022-11-20T12:23:46;101847.78;;;21.89;33.34
41513;BME280;27244;59.940;30.280;2022-11-20T12:26:27;101849.03;;;21.91;33.67
41513;BME280;27244;59.940;30.280;2022-11-20T12:29:01;101853.84;;;21.94;33.19
41513;BME280;27244;59.940;30.280;2022-11-20T12:31:54;101855.44;;;21.99;32.79
41513;BME280;27244;59.940;30.280;2022-11-20T12:34:43;101865.06;;;22.01;32.80
41513;BME280;27244;59.940;30.280;2022-11-20T12:37:26;101860.25;;;21.98;32.58
41513;BME280;27244;59.940;30.280;2022-11-20T12:39:58;101856.66;;;21.94;32.60
41513;BME280;27244;59.940;30.280;2022-11-20T12:42:49;101860.25;;;22.02;32.45
41513;BME280;27244;59.940;30.280;2022-11-20T12:46:08;101859.00;;;22.03;32.34
41513;BME280;27244;59.940;30.280;2022-11-20T12:48:42;101869.88;;;21.97;32.50
41513;BME280;27244;59.940;30.280;2022-11-20T12:51:34;101864.25;;;22.01;32.37
41513;BME280;27244;59.940;30.280;2022-11-20T12:54:32;101870.66;;;22.05;32.42
41513;BME280;27244;59.940;30.280;2022-11-20T12:57:06;101867.44;;;21.99;32.42
41513;BME280;27244;59.940;30.280;2022-11-20T13:02:33;101865.88;;;21.98;32.61
41513;BME280;27244;59.940;30.280;2022-11-20T13:05:17;101869.06;;;22.00;32.38
41513;BME280;27244;59.940;30.280;2022-11-20T13:07:45;101864.66;;;21.92;32.51
41513;BME280;27244;59.940;30.280;2022-11-20T13:10:20;101852.63;;;21.95;32.48
41513;BME280;27244;59.940;30.280;2022-11-20T13:12:52;101857.03;;;21.96;32.59
41513;BME280;27244;59.940;30.280;2022-11-20T13:15:38;101865.84;;;22.02;32.53
41513;BME280;27244;59.940;30.280;2022-11-20T13:18:11;101857.00;;;21.89;32.73
41513;BME280;27244;59.940;30.280;2022-11-20T13:20:42;101869.06;;;21.97;32.69
41513;BME280;27244;59.940;30.280;2022-11-20T13:23:09;101873.06;;;21.96;32.82
41513;BME280;27244;59.940;30.280;2022-11-20T13:25:39;101873.06;;;21.99;32.79
41513;BME280;27244;59.940;30.280;2022-11-20T13:28:27;101874.28;;;22.05;32.43
41513;BME280;27244;59.940;30.280;2022-11-20T13:30:56;101881.91;;;21.98;32.81
41513;BME280;27244;59.940;30.280;2022-11-20T13:33:27;101877.91;;;21.99;32.75
41513;BME280;27244;59.940;30.280;2022-11-20T13:35:57;101885.94;;;21.97;32.76